Data for 06/24/2010

Time Sea-Level Adjusted Pressure Absolute Pressure Temperature Relative Humidity Dew Point   
(mb) (inHg) (mb) (inHg) (C) (F) (%) (C) (F)
00:05 1022 30.18 851 25.13 15.2 59.4 64 8.5 47.2
00:10 1022 30.18 851 25.13 15 58.9 64 8.4 47
00:15 1022 30.18 851 25.13 14.8 58.7 64 8.1 46.7
00:20 1022 30.18 851 25.13 15 58.9 63 8.2 46.7
00:25 1022 30.18 851 25.13 14.8 58.7 65 8.3 46.9
00:30 1022 30.18 851 25.13 14.6 58.3 66 8.4 47.2
00:35 1022 30.18 851 25.13 14.6 58.2 66 8.4 47.1
00:40 1021 30.15 851 25.13 14.7 58.4 65 8.3 47
00:45 1021 30.15 851 25.13 14.5 58.2 66 8.3 47
00:50 1021 30.15 851 25.13 14.2 57.6 67 8.2 46.7
00:55 1021 30.15 851 25.13 14.1 57.3 67 8 46.4
01:00 1021 30.15 851 25.13 14 57.3 65 7.6 45.7
01:05 1021 30.15 850 25.1 14 57.2 66 7.7 45.9
01:10 1021 30.15 850 25.1 13.9 57.1 66 7.9 46.1
01:15 1021 30.15 850 25.1 14 57.2 64 7.4 45.2
01:20 1021 30.15 850 25.1 14.1 57.3 64 7.3 45.2
01:25 1021 30.15 850 25.1 14 57.2 64 7.4 45.3
01:30 1021 30.15 850 25.1 13.9 57 62 6.8 44.2
01:35 1021 30.15 850 25.1 13.9 57.1 59 6.1 43
01:40 1021 30.15 850 25.1 13.9 57.1 58 5.9 42.6
01:45 1021 30.15 850 25.1 14.2 57.5 53 4.9 40.8
01:50 1021 30.15 850 25.1 14.8 58.6 51 4.7 40.5
01:55 1021 30.15 850 25.1 14.8 58.7 51 4.7 40.5
02:00 1021 30.15 850 25.1 14.6 58.2 58 6.4 43.5
02:05 1021 30.15 850 25.1 14.7 58.5 55 5.8 42.4
02:10 1021 30.15 850 25.1 14.9 58.8 52 5.2 41.3
02:15 1021 30.15 850 25.1 14.5 58.1 59 6.7 44.1
02:20 1021 30.15 850 25.1 14.7 58.4 57 6.4 43.5
02:25 1021 30.15 850 25.1 14.5 58 56 5.9 42.6
02:30 1021 30.15 850 25.1 14.2 57.6 58 6.2 43.2
02:35 1021 30.15 850 25.1 14 57.1 58 5.9 42.7
02:40 1021 30.15 850 25.1 13.5 56.3 60 6.1 42.9
02:45 1021 30.15 850 25.1 13.3 55.9 60 5.7 42.2
02:50 1021 30.15 850 25.1 12.9 55.3 59 5 41.1
02:55 1021 30.15 850 25.1 12.9 55.3 57 4.7 40.5
03:00 1021 30.15 850 25.1 13.2 55.7 57 4.9 40.7
03:05 1021 30.15 850 25.1 13 55.4 57 4.8 40.6
03:10 1021 30.15 850 25.1 13.1 55.7 56 4.5 40.2
03:15 1021 30.15 850 25.1 13 55.4 56 4.4 39.9
03:20 1021 30.15 850 25.1 12.4 54.3 57 4.2 39.6
03:25 1021 30.15 850 25.1 12.2 54 56 3.9 39
03:30 1021 30.15 850 25.1 12.5 54.6 55 3.9 39
03:35 1021 30.15 850 25.1 13.1 55.5 56 4.4 40
03:40 1021 30.15 850 25.1 13 55.4 57 4.8 40.6
03:45 1021 30.15 850 25.1 12.8 55.1 57 4.7 40.4
03:50 1021 30.15 850 25.1 12.8 55.1 58 4.7 40.5
03:55 1021 30.15 850 25.1 12.8 55 56 4.2 39.5
04:00 1021 30.15 850 25.1 13.1 55.7 54 4.2 39.6
04:05 1021 30.15 850 25.1 13.4 56.1 57 5 41
04:10 1021 30.15 850 25.1 13.4 56.1 56 5 41
04:15 1021 30.15 850 25.1 13.4 56.1 55 4.6 40.3
04:20 1021 30.15 850 25.1 13.3 55.9 56 4.7 40.5
04:25 1021 30.15 850 25.1 13.1 55.7 55 4.5 40.1
04:30 1021 30.15 850 25.1 12.9 55.3 56 4.4 39.9
04:35 1021 30.15 850 25.1 12.8 55 53 3.5 38.3
04:40 1021 30.15 850 25.1 13.1 55.5 52 3.4 38.1
04:45 1021 30.15 850 25.1 13.4 56.2 51 3.4 38.2
04:50 1021 30.15 850 25.1 13.2 55.7 52 3.6 38.4
04:55 1021 30.15 850 25.1 12.6 54.7 54 3.6 38.4
05:00 1020 30.12 850 25.1 12.6 54.7 55 3.8 38.8
05:05 1021 30.15 850 25.1 12.7 54.9 55 4.1 39.3
05:10 1021 30.15 850 25.1 12.8 55.1 54 3.9 39
05:15 1021 30.15 850 25.1 12.9 55.3 54 3.9 39
05:20 1021 30.15 850 25.1 12.8 55.1 54 3.8 38.9
05:25 1021 30.15 850 25.1 12.6 54.7 54 3.5 38.4
05:30 1021 30.15 850 25.1 12.5 54.5 52 3.1 37.6
05:35 1021 30.15 850 25.1 12.6 54.6 52 3 37.5
05:40 1021 30.15 850 25.1 12.4 54.4 56 4 39.2
05:45 1021 30.15 850 25.1 12.1 53.8 56 3.7 38.7
05:50 1021 30.15 850 25.1 11.6 52.9 58 3.8 38.8
05:55 1021 30.15 850 25.1 11.2 52.2 56 2.9 37.2
06:00 1021 30.15 850 25.1 11.3 52.4 54 2.5 36.6
06:05 1021 30.15 850 25.1 11.6 52.9 52 2.2 35.9
06:10 1021 30.15 850 25.1 11.9 53.4 52 2.3 36.2
06:15 1021 30.15 850 25.1 12.1 53.8 51 2.3 36.2
06:20 1021 30.15 850 25.1 12.3 54.1 52 2.8 37.1
06:25 1021 30.15 850 25.1 12.4 54.3 58 4.4 39.9
06:30 1021 30.15 850 25.1 12 53.7 58 4.2 39.5
06:35 1021 30.15 850 25.1 11.9 53.5 58 4.1 39.3
06:40 1021 30.15 850 25.1 12.1 53.7 58 4.1 39.4
06:45 1021 30.15 850 25.1 12.2 53.9 58 4.3 39.7
06:50 1021 30.15 850 25.1 12.3 54.1 56 3.8 38.9
06:55 1021 30.15 850 25.1 12.3 54.2 57 4.1 39.4
07:00 1021 30.15 850 25.1 12.4 54.2 55 3.5 38.3
07:05 1021 30.15 850 25.1 12.7 54.8 54 3.6 38.4
07:10 1020 30.12 850 25.1 12.8 55 56 4.2 39.5
07:15 1020 30.12 850 25.1 12.6 54.7 56 4.2 39.5
07:20 1020 30.12 849 25.07 12.6 54.7 58 4.5 40.2
07:25 1020 30.12 849 25.07 12.7 54.8 57 4.4 39.9
07:30 1020 30.12 849 25.07 13 55.4 52 3.5 38.3
07:35 1020 30.12 849 25.07 13.5 56.2 51 3.6 38.6
07:40 1020 30.12 850 25.1 13.8 56.9 49 3.4 38.2
07:45 1020 30.12 850 25.1 14.4 57.8 47 3.4 38
07:50 1020 30.12 850 25.1 14.8 58.7 47 3.8 38.8
07:55 1021 30.15 850 25.1 15.2 59.3 46 3.6 38.5
08:00 1021 30.15 850 25.1 15.3 59.6 46 3.8 38.9
08:05 1021 30.15 850 25.1 15.6 60 43 3.2 37.8
08:10 1021 30.15 850 25.1 15.7 60.2 43 3.4 38.1
08:15 1021 30.15 850 25.1 15.7 60.3 48 4.9 40.9
08:20 1020 30.12 850 25.1 15.7 60.3 50 5.3 41.6
08:25 1020 30.12 849 25.07 16 60.7 47 4.8 40.7
08:30 1020 30.12 849 25.07 15.9 60.6 49 5.2 41.3
08:35 1020 30.12 849 25.07 16.1 60.9 47 4.8 40.6
08:40 1021 30.15 850 25.1 15.5 60 58 7.3 45.1
08:45 1020 30.12 849 25.07 15 59.1 51 5.1 41.3
08:50 1020 30.12 850 25.1 15.5 59.9 57 7 44.7
08:55 1021 30.15 850 25.1 15.5 59.8 52 5.7 42.2
09:00 1020 30.12 850 25.1 15.7 60.2 51 5.8 42.4
09:05 1020 30.12 850 25.1 15.9 60.7 49 5.2 41.4
09:10 1021 30.15 850 25.1 16 60.8 49 5.5 41.9
09:15 1020 30.12 850 25.1 16.5 61.6 45 4.6 40.2
09:20 1021 30.15 850 25.1 17.5 63.5 39 3.4 38.1
09:25 1021 30.15 850 25.1 17.7 63.8 41 4.6 40.2
09:30 1020 30.12 850 25.1 17.7 63.9 44 5.4 41.7
09:35 1021 30.15 850 25.1 17.7 63.9 44 5.4 41.8
09:40 1021 30.15 850 25.1 17.7 63.9 46 6.1 43
09:45 1021 30.15 850 25.1 17.9 64.1 42 5.1 41.1
09:50 1021 30.15 850 25.1 17.9 64.2 44 5.6 42.1
09:55 1021 30.15 850 25.1 17.7 63.9 51 7.6 45.7
10:00 1021 30.15 850 25.1 17.3 63.1 53 7.8 46.1
10:05 1021 30.15 850 25.1 17.4 63.3 52 7.5 45.5
10:10 1021 30.15 850 25.1 17.3 63.2 52 7.4 45.3
10:15 1021 30.15 850 25.1 17.6 63.7 49 6.8 44.3
10:20 1021 30.15 850 25.1 17.2 62.9 58 8.9 48
10:25 1021 30.15 850 25.1 17 62.5 57 8.6 47.4
10:30 1021 30.15 850 25.1 17 62.7 57 8.6 47.6
10:35 1021 30.15 850 25.1 16.6 62 57 8.1 46.6
10:40 1021 30.15 850 25.1 17.6 63.7 52 7.8 46.1
10:45 1020 30.12 850 25.1 17.8 64 49 7.2 44.9
10:50 1020 30.12 850 25.1 18.6 65.4 49 7.6 45.7
10:55 1021 30.15 850 25.1 18.8 65.8 49 8 46.3
11:00 1020 30.12 850 25.1 18.3 64.9 48 7.2 45
11:05 1020 30.12 850 25.1 18.3 65 50 7.7 45.9
11:10 1020 30.12 850 25.1 18.7 65.6 49 8 46.4
11:15 1021 30.15 850 25.1 18.8 65.8 48 7.8 46
11:20 1020 30.12 850 25.1 18.9 66.1 41 5.5 41.9
11:25 1021 30.15 850 25.1 19.7 67.5 42 6.5 43.7
11:30 1021 30.15 850 25.1 20.5 68.9 38 5.8 42.4
11:35 1021 30.15 850 25.1 20.8 69.4 35 4.9 40.8
11:40 1020 30.12 850 25.1 21.6 70.8 35 5.7 42.2
11:45 1020 30.12 850 25.1 21.8 71.3 35 5.8 42.5
11:50 1020 30.12 849 25.07 21.5 70.6 34 5.3 41.6
11:55 1020 30.12 849 25.07 21.6 70.8 33 4.9 40.7
12:00 1020 30.12 849 25.07 21.9 71.4 34 5.3 41.6
12:05 1020 30.12 849 25.07 22.5 72.4 32 5 41
12:10 1020 30.12 849 25.07 23.5 74.3 31 5.5 41.9
12:15 1020 30.12 849 25.07 22 71.6 35 6.1 43
12:20 1020 30.12 849 25.07 21.9 71.4 34 5.3 41.6
12:25 1020 30.12 849 25.07 21.7 71.1 34 5.2 41.4
12:30 1020 30.12 849 25.07 21.7 71 36 6.2 43.2
12:35 1020 30.12 849 25.07 22.5 72.5 36 7 44.6
12:40 1020 30.12 849 25.07 22.7 72.9 37 7.6 45.6
12:45 1020 30.12 849 25.07 23.2 73.7 36 7.3 45.2
12:50 1020 30.12 849 25.07 23.2 73.8 36 7.4 45.3
12:55 1020 30.12 849 25.07 23.5 74.2 33 6.3 43.3
13:00 1020 30.12 849 25.07 23.8 74.9 31 6.1 43
13:05 1020 30.12 849 25.07 23.2 73.8 35 7.2 44.9
13:10 1020 30.12 849 25.07 23.1 73.5 35 7.1 44.8
13:15 1020 30.12 849 25.07 23.5 74.3 33 6.6 43.9
13:20 1020 30.12 849 25.07 23.1 73.5 37 7.9 46.1
13:25 1020 30.12 849 25.07 23.2 73.8 38 8.2 46.8
13:30 1020 30.12 849 25.07 23.2 73.7 34 6.6 43.9
13:35 1020 30.12 849 25.07 23.6 74.4 34 6.8 44.2
13:40 1020 30.12 849 25.07 23.7 74.7 33 6.8 44.2
13:45 1020 30.12 849 25.07 23.4 74.2 35 7.3 45.2
13:50 1020 30.12 849 25.07 23.3 73.9 33 6.3 43.3
13:55 1020 30.12 849 25.07 23.5 74.3 33 6.5 43.8
14:00 1020 30.12 849 25.07 22.9 73.1 38 8 46.3
14:05 1020 30.12 849 25.07 22.5 72.5 38 7.7 45.9
14:10 1020 30.12 849 25.07 22 71.6 35 6.2 43.2
14:15 1020 30.12 849 25.07 21.9 71.4 37 6.6 43.8
14:20 1020 30.12 849 25.07 22.6 72.6 35 6.6 43.9
14:25 1020 30.12 849 25.07 22.5 72.4 33 5.6 42.2
14:30 1020 30.12 849 25.07 22.5 72.4 33 5.7 42.2
14:35 1020 30.12 849 25.07 23.1 73.6 33 6 42.8
14:40 1020 30.12 849 25.07 22.6 72.7 34 6 42.8
14:45 1019 30.09 849 25.07 22.5 72.6 33 5.8 42.4
14:50 1019 30.09 849 25.07 22.5 72.5 34 6 42.9
14:55 1019 30.09 849 25.07 22.9 73.1 34 6.2 43.2
15:00 1019 30.09 848 25.04 22.9 73.2 33 6 42.7
15:05 1019 30.09 848 25.04 22.5 72.6 32 5.2 41.4
15:10 1019 30.09 848 25.04 23 73.4 32 5.4 41.8
15:15 1019 30.09 848 25.04 24 75.1 29 5.3 41.5
15:20 1019 30.09 848 25.04 23.9 75.1 29 4.9 40.8
15:25 1019 30.09 848 25.04 24.5 76.1 28 4.9 40.8
15:30 1019 30.09 848 25.04 24.7 76.5 26 3.9 39
15:35 1019 30.09 848 25.04 24.5 76 25 3.5 38.3
15:40 1018 30.06 848 25.04 24.4 76 23 2.3 36.1
15:45 1018 30.06 848 25.04 24.9 76.8 20 0.6 33
15:50 1018 30.06 847 25.01 25.7 78.2 19 0.6 33
15:55 1018 30.06 847 25.01 26.2 79.1 19 0.8 33.4
16:00 1018 30.06 847 25.01 26 78.8 18 0.2 32.4
16:05 1018 30.06 847 25.01 25.6 78 18 0.1 32.1
16:10 1018 30.06 847 25.01 26 78.8 19 0.9 33.7
16:15 1018 30.06 847 25.01 25.6 78.1 20 0.9 33.7
16:20 1018 30.06 847 25.01 25.8 78.5 21 2.3 36.2
16:25 1018 30.06 847 25.01 26.9 80.4 20 2.6 36.6
16:30 1018 30.06 847 25.01 26.9 80.3 22 3.4 38.1
16:35 1018 30.06 847 25.01 26.2 79.2 22 3.3 38
16:40 1018 30.06 847 25.01 26.1 78.9 21 2.6 36.7
16:45 1018 30.06 847 25.01 27.1 80.8 21 3.3 37.9
16:50 1017 30.03 847 25.01 27 80.7 21 2.9 37.3
16:55 1017 30.03 847 25.01 26.8 80.3 21 3.2 37.7
17:00 1017 30.03 846 24.98 27.3 81.1 21 3.1 37.7
17:05 1017 30.03 846 24.98 26.8 80.2 22 3.6 38.5
17:10 1017 30.03 846 24.98 27 80.5 21 2.9 37.2
17:15 1017 30.03 846 24.98 26.4 79.6 22 3.6 38.4
17:20 1017 30.03 846 24.98 25.9 78.6 22 3 37.4
17:25 1017 30.03 846 24.98 26.6 79.8 22 3.4 38.1
17:30 1017 30.03 846 24.98 26.5 79.7 23 4.2 39.5
17:35 1017 30.03 846 24.98 26.4 79.5 24 4.5 40
17:40 1017 30.03 846 24.98 27 80.7 22 3.6 38.5
17:45 1017 30.03 846 24.98 27.1 80.8 23 4.8 40.6
17:50 1017 30.03 846 24.98 26 78.8 24 4.1 39.5
17:55 1017 30.03 846 24.98 25.7 78.3 25 4.4 39.9
18:00 1017 30.03 846 24.98 25.6 78.1 25 4.2 39.5
18:05 1017 30.03 846 24.98 25.6 78 24 4 39.1
18:10 1017 30.03 846 24.98 25.4 77.7 26 4.5 40.1
18:15 1017 30.03 847 25.01 25.4 77.7 24 3.6 38.4
18:20 1017 30.03 847 25.01 25.2 77.4 24 3.5 38.4
18:25 1017 30.03 847 25.01 24.9 76.8 25 3.5 38.3
18:30 1018 30.06 847 25.01 24.5 76.1 26 4 39.1
18:35 1018 30.06 847 25.01 24.3 75.7 27 4.3 39.7
18:40 1018 30.06 847 25.01 24.1 75.4 30 5.5 41.8
18:45 1017 30.03 847 25.01 23.8 74.9 31 6.1 43
18:50 1018 30.06 847 25.01 23.5 74.3 33 6.7 44
18:55 1018 30.06 847 25.01 23.3 73.9 35 7.1 44.7
19:00 1018 30.06 847 25.01 23.1 73.6 41 9.5 49
19:05 1018 30.06 847 25.01 22.6 72.6 47 11 51.7
19:10 1018 30.06 848 25.04 21.6 70.9 51 11.2 52.1
19:15 1019 30.09 848 25.04 20.9 69.5 49 9.9 49.9
19:20 1019 30.09 848 25.04 20.9 69.6 38 6.4 43.5
19:25 1019 30.09 848 25.04 20.6 69.1 40 6.9 44.4
19:30 1020 30.12 849 25.07 19.1 66.3 54 9.7 49.4
19:35 1020 30.12 849 25.07 16.8 62.2 69 11 51.8
19:40 1020 30.12 849 25.07 15.6 60 75 11.2 52.1
19:45 1020 30.12 849 25.07 15.3 59.5 74 10.7 51.2
19:50 1019 30.09 848 25.04 15.7 60.3 65 9.2 48.5
19:55 1018 30.06 847 25.01 15.7 60.2 67 9.5 49.2
20:00 1018 30.06 847 25.01 15.7 60.3 64 9 48.2
20:05 1018 30.06 847 25.01 16.3 61.4 54 7.2 45
20:10 1018 30.06 847 25.01 16.9 62.4 64 10.2 50.4
20:15 1018 30.06 848 25.04 16.7 62 64 10 50
20:20 1018 30.06 848 25.04 16.9 62.5 58 8.8 47.8
20:25 1019 30.09 848 25.04 16.8 62.3 61 9.4 49
20:30 1019 30.09 848 25.04 16.6 61.8 67 10.4 50.8
20:35 1019 30.09 848 25.04 16.2 61.1 64 9.5 49.1
20:40 1019 30.09 848 25.04 16.5 61.8 60 8.8 47.8
20:45 1019 30.09 848 25.04 16.9 62.4 61 9.5 49
20:50 1019 30.09 848 25.04 17 62.6 61 9.4 48.9
20:55 1019 30.09 848 25.04 16.9 62.4 71 11.6 52.9
21:00 1019 30.09 848 25.04 15.7 60.2 74 11.2 52.1
21:05 1018 30.06 848 25.04 15.4 59.6 77 11.4 52.5
21:10 1018 30.06 848 25.04 15.2 59.4 75 10.9 51.6
21:15 1018 30.06 848 25.04 15.4 59.7 72 10.5 50.9
21:20 1018 30.06 847 25.01 15.4 59.7 73 10.7 51.2
21:25 1018 30.06 847 25.01 15.3 59.6 70 10 50
21:30 1018 30.06 847 25.01 15.5 59.9 67 9.5 49
21:35 1018 30.06 847 25.01 15.7 60.3 66 9.4 48.9
21:40 1018 30.06 847 25.01 15.9 60.6 63 8.9 48.1
21:45 1018 30.06 848 25.04 16.1 61 61 8.7 47.7
21:50 1018 30.06 848 25.04 16.3 61.3 62 9.1 48.4
21:55 1018 30.06 848 25.04 16.2 61.2 62 9 48.1
22:00 1018 30.06 848 25.04 16.2 61.1 61 8.7 47.7
22:05 1018 30.06 848 25.04 16.3 61.3 61 8.8 47.9
22:10 1018 30.06 848 25.04 16.2 61.2 61 8.9 47.9
22:15 1019 30.09 848 25.04 16.3 61.3 64 9.5 49.1
22:20 1019 30.09 848 25.04 16.3 61.4 66 10.1 50.2
22:25 1019 30.09 848 25.04 16.2 61.2 65 9.7 49.4
22:30 1019 30.09 848 25.04 16.2 61.2 65 9.7 49.4
22:35 1019 30.09 848 25.04 16.1 61 73 11.2 52.2
22:40 1018 30.06 848 25.04 15.5 60 74 11.1 51.9
22:45 1018 30.06 848 25.04 15.2 59.4 74 10.8 51.4
22:50 1018 30.06 848 25.04 15.1 59.1 73 10.3 50.5
22:55 1018 30.06 848 25.04 14.8 58.7 73 10 50
23:00 1018 30.06 848 25.04 14.6 58.3 74 10 50.1
23:05 1018 30.06 847 25.01 14.5 58.2 74 9.9 49.9
23:10 1018 30.06 847 25.01 14.4 57.9 76 10.2 50.3
23:15 1018 30.06 847 25.01 14 57.1 76 9.8 49.7
23:20 1018 30.06 847 25.01 13.8 56.9 76 9.7 49.5
23:25 1018 30.06 847 25.01 13.8 56.8 76 9.6 49.3
23:30 1018 30.06 847 25.01 13.8 56.8 74 9.4 48.9
23:35 1018 30.06 847 25.01 13.9 57 74 9.4 49
23:40 1018 30.06 847 25.01 13.8 56.9 75 9.6 49.2
23:45 1018 30.06 847 25.01 13.6 56.5 74 9.2 48.5
23:50 1018 30.06 847 25.01 14 57.2 72 9 48.2
23:55 1018 30.06 847 25.01 14.1 57.5 71 8.9 48.1
24:00 1018 30.06 847 25.01 14.5 58 68 8.7 47.7